sensor_id;sensor_type;location;lat;lon;timestamp;P1;durP1;ratioP1;P2;durP2;ratioP2
19004;SDS011;9635;52.078;8.648;2023-10-31T00:00:33;3.30;;;1.90;;
19004;SDS011;9635;52.078;8.648;2023-10-31T00:05:37;5.28;;;1.70;;
19004;SDS011;9635;52.078;8.648;2023-10-31T00:10:40;2.80;;;2.03;;
19004;SDS011;9635;52.078;8.648;2023-10-31T00:15:47;3.38;;;2.20;;
19004;SDS011;9635;52.078;8.648;2023-10-31T00:20:50;4.72;;;2.50;;
19004;SDS011;9635;52.078;8.648;2023-10-31T00:25:53;3.55;;;2.47;;
19004;SDS011;9635;52.078;8.648;2023-10-31T00:30:57;3.33;;;2.88;;
19004;SDS011;9635;52.078;8.648;2023-10-31T00:36:02;3.65;;;2.97;;
19004;SDS011;9635;52.078;8.648;2023-10-31T00:41:05;7.10;;;2.47;;
19004;SDS011;9635;52.078;8.648;2023-10-31T00:46:10;5.30;;;2.78;;
19004;SDS011;9635;52.078;8.648;2023-10-31T00:51:13;2.95;;;2.63;;
19004;SDS011;9635;52.078;8.648;2023-10-31T00:56:16;5.18;;;2.88;;
19004;SDS011;9635;52.078;8.648;2023-10-31T01:01:20;3.13;;;2.70;;
19004;SDS011;9635;52.078;8.648;2023-10-31T01:06:23;3.60;;;3.13;;
19004;SDS011;9635;52.078;8.648;2023-10-31T01:11:26;2.65;;;2.42;;
19004;SDS011;9635;52.078;8.648;2023-10-31T01:16:30;3.50;;;2.90;;
19004;SDS011;9635;52.078;8.648;2023-10-31T01:21:33;3.22;;;2.92;;
19004;SDS011;9635;52.078;8.648;2023-10-31T01:26:36;3.28;;;2.85;;
19004;SDS011;9635;52.078;8.648;2023-10-31T01:31:41;5.47;;;2.75;;
19004;SDS011;9635;52.078;8.648;2023-10-31T01:36:59;3.45;;;3.15;;
19004;SDS011;9635;52.078;8.648;2023-10-31T01:42:02;3.85;;;3.05;;
19004;SDS011;9635;52.078;8.648;2023-10-31T01:47:07;3.75;;;3.20;;
19004;SDS011;9635;52.078;8.648;2023-10-31T01:52:10;4.18;;;3.55;;
19004;SDS011;9635;52.078;8.648;2023-10-31T01:57:13;5.10;;;4.65;;
19004;SDS011;9635;52.078;8.648;2023-10-31T02:02:18;4.78;;;4.18;;
19004;SDS011;9635;52.078;8.648;2023-10-31T02:07:25;8.60;;;5.57;;
19004;SDS011;9635;52.078;8.648;2023-10-31T02:12:31;6.88;;;6.18;;
19004;SDS011;9635;52.078;8.648;2023-10-31T02:17:36;5.70;;;5.10;;
19004;SDS011;9635;52.078;8.648;2023-10-31T02:22:40;8.65;;;6.57;;
19004;SDS011;9635;52.078;8.648;2023-10-31T02:27:43;10.63;;;9.27;;
19004;SDS011;9635;52.078;8.648;2023-10-31T02:32:47;9.30;;;8.38;;
19004;SDS011;9635;52.078;8.648;2023-10-31T02:37:51;9.63;;;8.68;;
19004;SDS011;9635;52.078;8.648;2023-10-31T02:42:54;7.35;;;6.63;;
19004;SDS011;9635;52.078;8.648;2023-10-31T02:48:00;6.28;;;5.68;;
19004;SDS011;9635;52.078;8.648;2023-10-31T02:53:07;5.28;;;4.68;;
19004;SDS011;9635;52.078;8.648;2023-10-31T02:58:11;5.57;;;4.88;;
19004;SDS011;9635;52.078;8.648;2023-10-31T03:03:15;2.97;;;2.67;;
19004;SDS011;9635;52.078;8.648;2023-10-31T03:08:20;2.58;;;2.38;;
19004;SDS011;9635;52.078;8.648;2023-10-31T03:13:25;1.00;;;1.00;;
19004;SDS011;9635;52.078;8.648;2023-10-31T03:18:30;1.00;;;0.82;;
19004;SDS011;9635;52.078;8.648;2023-10-31T03:23:35;1.00;;;1.00;;
19004;SDS011;9635;52.078;8.648;2023-10-31T03:28:40;0.63;;;0.63;;
19004;SDS011;9635;52.078;8.648;2023-10-31T03:33:46;0.50;;;0.50;;
19004;SDS011;9635;52.078;8.648;2023-10-31T03:38:51;0.10;;;0.10;;
19004;SDS011;9635;52.078;8.648;2023-10-31T03:43:55;1.08;;;0.25;;
19004;SDS011;9635;52.078;8.648;2023-10-31T03:48:59;0.20;;;0.20;;
19004;SDS011;9635;52.078;8.648;2023-10-31T03:54:07;0.55;;;0.38;;
19004;SDS011;9635;52.078;8.648;2023-10-31T03:59:11;0.20;;;0.20;;
19004;SDS011;9635;52.078;8.648;2023-10-31T04:04:15;0.45;;;0.20;;
19004;SDS011;9635;52.078;8.648;2023-10-31T04:09:20;3.53;;;0.30;;
19004;SDS011;9635;52.078;8.648;2023-10-31T04:14:23;1.48;;;0.50;;
19004;SDS011;9635;52.078;8.648;2023-10-31T04:19:30;1.75;;;0.65;;
19004;SDS011;9635;52.078;8.648;2023-10-31T04:24:34;2.22;;;0.70;;
19004;SDS011;9635;52.078;8.648;2023-10-31T04:29:37;1.35;;;0.65;;
19004;SDS011;9635;52.078;8.648;2023-10-31T04:34:40;1.58;;;1.30;;
19004;SDS011;9635;52.078;8.648;2023-10-31T04:39:44;3.80;;;1.42;;
19004;SDS011;9635;52.078;8.648;2023-10-31T04:44:48;1.75;;;0.73;;
19004;SDS011;9635;52.078;8.648;2023-10-31T04:49:51;3.10;;;1.67;;
19004;SDS011;9635;52.078;8.648;2023-10-31T04:54:55;2.03;;;1.75;;
19004;SDS011;9635;52.078;8.648;2023-10-31T04:59:58;3.05;;;2.78;;
19004;SDS011;9635;52.078;8.648;2023-10-31T05:05:01;5.38;;;3.00;;
19004;SDS011;9635;52.078;8.648;2023-10-31T05:10:07;6.82;;;3.58;;
19004;SDS011;9635;52.078;8.648;2023-10-31T05:15:10;4.82;;;3.35;;
19004;SDS011;9635;52.078;8.648;2023-10-31T05:20:13;4.15;;;3.45;;
19004;SDS011;9635;52.078;8.648;2023-10-31T05:25:18;6.30;;;4.68;;
19004;SDS011;9635;52.078;8.648;2023-10-31T05:30:21;6.75;;;3.45;;
19004;SDS011;9635;52.078;8.648;2023-10-31T05:35:24;8.98;;;4.97;;
19004;SDS011;9635;52.078;8.648;2023-10-31T05:40:28;6.20;;;5.50;;
19004;SDS011;9635;52.078;8.648;2023-10-31T05:45:33;5.68;;;4.10;;
19004;SDS011;9635;52.078;8.648;2023-10-31T05:50:36;12.38;;;6.55;;
19004;SDS011;9635;52.078;8.648;2023-10-31T05:55:40;11.38;;;7.47;;
19004;SDS011;9635;52.078;8.648;2023-10-31T06:00:43;10.00;;;6.50;;
19004;SDS011;9635;52.078;8.648;2023-10-31T06:05:46;10.68;;;5.32;;
19004;SDS011;9635;52.078;8.648;2023-10-31T06:10:51;15.05;;;10.85;;
19004;SDS011;9635;52.078;8.648;2023-10-31T06:15:55;15.48;;;8.30;;
19004;SDS011;9635;52.078;8.648;2023-10-31T06:21:02;18.17;;;11.15;;
19004;SDS011;9635;52.078;8.648;2023-10-31T06:26:07;24.25;;;14.18;;
19004;SDS011;9635;52.078;8.648;2023-10-31T06:31:10;15.18;;;10.20;;
19004;SDS011;9635;52.078;8.648;2023-10-31T06:36:13;26.55;;;15.20;;
19004;SDS011;9635;52.078;8.648;2023-10-31T06:41:17;23.77;;;14.07;;
19004;SDS011;9635;52.078;8.648;2023-10-31T06:46:21;24.65;;;13.98;;
19004;SDS011;9635;52.078;8.648;2023-10-31T06:51:23;28.63;;;14.10;;
19004;SDS011;9635;52.078;8.648;2023-10-31T06:56:28;23.27;;;11.70;;
19004;SDS011;9635;52.078;8.648;2023-10-31T07:01:31;18.48;;;12.18;;
19004;SDS011;9635;52.078;8.648;2023-10-31T07:06:34;24.70;;;13.63;;
19004;SDS011;9635;52.078;8.648;2023-10-31T07:11:39;12.57;;;8.02;;
19004;SDS011;9635;52.078;8.648;2023-10-31T07:16:42;13.63;;;8.90;;
19004;SDS011;9635;52.078;8.648;2023-10-31T07:21:46;18.10;;;10.95;;
19004;SDS011;9635;52.078;8.648;2023-10-31T07:26:51;19.23;;;12.13;;
19004;SDS011;9635;52.078;8.648;2023-10-31T07:31:54;12.25;;;7.85;;
19004;SDS011;9635;52.078;8.648;2023-10-31T07:36:58;4.20;;;3.40;;
19004;SDS011;9635;52.078;8.648;2023-10-31T07:42:02;5.22;;;3.47;;
19004;SDS011;9635;52.078;8.648;2023-10-31T07:47:05;2.55;;;2.08;;
19004;SDS011;9635;52.078;8.648;2023-10-31T07:52:08;2.00;;;1.70;;
19004;SDS011;9635;52.078;8.648;2023-10-31T07:57:12;2.00;;;1.40;;
19004;SDS011;9635;52.078;8.648;2023-10-31T08:02:15;2.28;;;2.00;;
19004;SDS011;9635;52.078;8.648;2023-10-31T08:07:18;1.45;;;0.95;;
19004;SDS011;9635;52.078;8.648;2023-10-31T08:12:22;2.28;;;1.63;;
19004;SDS011;9635;52.078;8.648;2023-10-31T08:17:25;2.50;;;1.35;;
19004;SDS011;9635;52.078;8.648;2023-10-31T08:22:28;1.48;;;1.38;;
19004;SDS011;9635;52.078;8.648;2023-10-31T08:27:33;1.42;;;1.33;;
19004;SDS011;9635;52.078;8.648;2023-10-31T08:32:36;1.75;;;1.15;;
19004;SDS011;9635;52.078;8.648;2023-10-31T08:37:39;1.30;;;1.13;;
19004;SDS011;9635;52.078;8.648;2023-10-31T08:42:43;2.22;;;1.70;;
19004;SDS011;9635;52.078;8.648;2023-10-31T08:47:46;2.45;;;1.40;;
19004;SDS011;9635;52.078;8.648;2023-10-31T08:52:49;1.50;;;1.40;;
19004;SDS011;9635;52.078;8.648;2023-10-31T08:57:53;2.20;;;1.40;;
19004;SDS011;9635;52.078;8.648;2023-10-31T09:02:57;1.20;;;0.93;;
19004;SDS011;9635;52.078;8.648;2023-10-31T09:08:00;2.28;;;1.02;;
19004;SDS011;9635;52.078;8.648;2023-10-31T09:13:04;2.92;;;1.17;;
19004;SDS011;9635;52.078;8.648;2023-10-31T09:18:07;2.15;;;1.42;;
19004;SDS011;9635;52.078;8.648;2023-10-31T09:23:10;3.40;;;2.17;;
19004;SDS011;9635;52.078;8.648;2023-10-31T09:28:14;3.00;;;2.30;;
19004;SDS011;9635;52.078;8.648;2023-10-31T09:33:17;3.30;;;2.85;;
19004;SDS011;9635;52.078;8.648;2023-10-31T09:38:20;6.65;;;3.55;;
19004;SDS011;9635;52.078;8.648;2023-10-31T09:43:25;3.72;;;3.10;;
19004;SDS011;9635;52.078;8.648;2023-10-31T09:48:27;3.90;;;3.22;;
19004;SDS011;9635;52.078;8.648;2023-10-31T09:53:31;3.45;;;1.77;;
19004;SDS011;9635;52.078;8.648;2023-10-31T09:58:37;4.38;;;3.08;;
19004;SDS011;9635;52.078;8.648;2023-10-31T10:03:41;3.90;;;3.05;;
19004;SDS011;9635;52.078;8.648;2023-10-31T10:08:45;6.40;;;3.75;;
19004;SDS011;9635;52.078;8.648;2023-10-31T10:13:49;7.72;;;4.97;;
19004;SDS011;9635;52.078;8.648;2023-10-31T10:18:54;7.28;;;4.13;;
19004;SDS011;9635;52.078;8.648;2023-10-31T10:23:57;8.43;;;5.28;;
19004;SDS011;9635;52.078;8.648;2023-10-31T10:29:01;11.93;;;7.43;;
19004;SDS011;9635;52.078;8.648;2023-10-31T10:34:04;11.43;;;6.68;;
19004;SDS011;9635;52.078;8.648;2023-10-31T10:39:09;13.73;;;7.63;;
19004;SDS011;9635;52.078;8.648;2023-10-31T10:44:14;13.95;;;8.63;;
19004;SDS011;9635;52.078;8.648;2023-10-31T10:49:18;15.93;;;9.43;;
19004;SDS011;9635;52.078;8.648;2023-10-31T10:54:29;18.48;;;9.40;;
19004;SDS011;9635;52.078;8.648;2023-10-31T10:59:38;19.08;;;11.48;;
19004;SDS011;9635;52.078;8.648;2023-10-31T11:04:44;23.30;;;14.20;;
19004;SDS011;9635;52.078;8.648;2023-10-31T11:09:47;18.40;;;11.15;;
19004;SDS011;9635;52.078;8.648;2023-10-31T11:14:53;23.40;;;12.75;;
19004;SDS011;9635;52.078;8.648;2023-10-31T11:19:56;22.73;;;12.45;;
19004;SDS011;9635;52.078;8.648;2023-10-31T11:25:00;19.52;;;10.85;;
19004;SDS011;9635;52.078;8.648;2023-10-31T11:30:06;18.33;;;9.75;;
19004;SDS011;9635;52.078;8.648;2023-10-31T11:35:10;15.70;;;10.23;;
19004;SDS011;9635;52.078;8.648;2023-10-31T11:40:15;14.00;;;9.55;;
19004;SDS011;9635;52.078;8.648;2023-10-31T11:45:27;12.05;;;7.45;;
19004;SDS011;9635;52.078;8.648;2023-10-31T11:50:32;15.45;;;8.65;;
19004;SDS011;9635;52.078;8.648;2023-10-31T11:55:35;14.60;;;10.50;;
19004;SDS011;9635;52.078;8.648;2023-10-31T12:00:40;9.60;;;6.88;;
19004;SDS011;9635;52.078;8.648;2023-10-31T12:05:53;9.48;;;7.43;;
19004;SDS011;9635;52.078;8.648;2023-10-31T12:11:04;10.13;;;8.45;;
19004;SDS011;9635;52.078;8.648;2023-10-31T12:16:11;10.05;;;7.63;;
19004;SDS011;9635;52.078;8.648;2023-10-31T12:21:14;12.95;;;8.43;;
19004;SDS011;9635;52.078;8.648;2023-10-31T12:26:20;11.10;;;8.38;;
19004;SDS011;9635;52.078;8.648;2023-10-31T12:31:25;12.98;;;9.50;;
19004;SDS011;9635;52.078;8.648;2023-10-31T12:36:28;16.20;;;11.95;;
19004;SDS011;9635;52.078;8.648;2023-10-31T12:41:31;10.30;;;7.78;;
19004;SDS011;9635;52.078;8.648;2023-10-31T12:46:38;14.38;;;8.63;;
19004;SDS011;9635;52.078;8.648;2023-10-31T12:51:54;11.32;;;8.57;;
19004;SDS011;9635;52.078;8.648;2023-10-31T12:56:59;13.82;;;8.27;;
19004;SDS011;9635;52.078;8.648;2023-10-31T13:02:04;9.90;;;8.02;;
19004;SDS011;9635;52.078;8.648;2023-10-31T13:07:08;7.00;;;4.93;;
19004;SDS011;9635;52.078;8.648;2023-10-31T13:12:11;13.70;;;10.88;;
19004;SDS011;9635;52.078;8.648;2023-10-31T13:17:15;13.50;;;9.20;;
19004;SDS011;9635;52.078;8.648;2023-10-31T13:22:20;15.40;;;11.38;;
19004;SDS011;9635;52.078;8.648;2023-10-31T13:27:23;15.75;;;11.27;;
19004;SDS011;9635;52.078;8.648;2023-10-31T13:32:28;11.45;;;9.18;;
19004;SDS011;9635;52.078;8.648;2023-10-31T13:37:31;14.13;;;8.38;;
19004;SDS011;9635;52.078;8.648;2023-10-31T13:42:35;17.08;;;11.05;;
19004;SDS011;9635;52.078;8.648;2023-10-31T13:47:39;16.85;;;12.48;;
19004;SDS011;9635;52.078;8.648;2023-10-31T13:52:42;20.73;;;14.10;;
19004;SDS011;9635;52.078;8.648;2023-10-31T13:57:45;18.45;;;11.90;;
19004;SDS011;9635;52.078;8.648;2023-10-31T14:02:50;12.27;;;8.93;;
19004;SDS011;9635;52.078;8.648;2023-10-31T14:07:53;14.82;;;10.00;;
19004;SDS011;9635;52.078;8.648;2023-10-31T14:12:56;17.33;;;13.68;;
19004;SDS011;9635;52.078;8.648;2023-10-31T14:18:01;22.42;;;12.90;;
19004;SDS011;9635;52.078;8.648;2023-10-31T14:23:04;16.55;;;12.80;;
19004;SDS011;9635;52.078;8.648;2023-10-31T14:28:07;19.27;;;12.00;;
19004;SDS011;9635;52.078;8.648;2023-10-31T14:33:11;21.00;;;13.65;;
19004;SDS011;9635;52.078;8.648;2023-10-31T14:38:15;19.88;;;12.02;;
19004;SDS011;9635;52.078;8.648;2023-10-31T14:43:18;18.50;;;13.40;;
19004;SDS011;9635;52.078;8.648;2023-10-31T14:48:22;21.65;;;15.50;;
19004;SDS011;9635;52.078;8.648;2023-10-31T14:53:26;22.30;;;12.80;;
19004;SDS011;9635;52.078;8.648;2023-10-31T14:58:28;22.02;;;14.52;;
19004;SDS011;9635;52.078;8.648;2023-10-31T15:03:33;22.00;;;12.80;;
19004;SDS011;9635;52.078;8.648;2023-10-31T15:08:36;17.00;;;11.50;;
19004;SDS011;9635;52.078;8.648;2023-10-31T15:13:39;18.13;;;11.30;;
19004;SDS011;9635;52.078;8.648;2023-10-31T15:18:43;18.05;;;8.95;;
19004;SDS011;9635;52.078;8.648;2023-10-31T15:23:46;18.63;;;12.02;;
19004;SDS011;9635;52.078;8.648;2023-10-31T15:28:52;16.63;;;10.43;;
19004;SDS011;9635;52.078;8.648;2023-10-31T15:33:56;18.75;;;11.20;;
19004;SDS011;9635;52.078;8.648;2023-10-31T15:39:01;18.23;;;10.75;;
19004;SDS011;9635;52.078;8.648;2023-10-31T15:44:04;17.35;;;11.98;;
19004;SDS011;9635;52.078;8.648;2023-10-31T15:49:09;17.08;;;11.25;;
19004;SDS011;9635;52.078;8.648;2023-10-31T15:54:11;16.85;;;10.82;;
19004;SDS011;9635;52.078;8.648;2023-10-31T15:59:14;13.57;;;7.97;;
19004;SDS011;9635;52.078;8.648;2023-10-31T16:04:19;17.05;;;9.77;;
19004;SDS011;9635;52.078;8.648;2023-10-31T16:09:25;15.95;;;10.10;;
19004;SDS011;9635;52.078;8.648;2023-10-31T16:14:28;15.32;;;8.55;;
19004;SDS011;9635;52.078;8.648;2023-10-31T16:19:33;19.17;;;9.23;;
19004;SDS011;9635;52.078;8.648;2023-10-31T16:24:35;12.73;;;7.47;;
19004;SDS011;9635;52.078;8.648;2023-10-31T16:29:38;17.08;;;6.70;;
19004;SDS011;9635;52.078;8.648;2023-10-31T16:34:43;16.73;;;7.55;;
19004;SDS011;9635;52.078;8.648;2023-10-31T16:39:48;15.88;;;6.25;;
19004;SDS011;9635;52.078;8.648;2023-10-31T16:44:50;13.55;;;6.88;;
19004;SDS011;9635;52.078;8.648;2023-10-31T16:49:55;12.10;;;5.70;;
19004;SDS011;9635;52.078;8.648;2023-10-31T16:54:58;11.93;;;6.90;;
19004;SDS011;9635;52.078;8.648;2023-10-31T17:00:00;10.02;;;4.38;;
19004;SDS011;9635;52.078;8.648;2023-10-31T17:05:05;7.78;;;3.42;;
19004;SDS011;9635;52.078;8.648;2023-10-31T17:10:09;5.82;;;3.72;;
19004;SDS011;9635;52.078;8.648;2023-10-31T17:15:12;8.50;;;4.10;;
19004;SDS011;9635;52.078;8.648;2023-10-31T17:20:16;8.43;;;4.20;;
19004;SDS011;9635;52.078;8.648;2023-10-31T17:25:19;8.20;;;4.45;;
19004;SDS011;9635;52.078;8.648;2023-10-31T17:30:22;9.15;;;4.95;;
19004;SDS011;9635;52.078;8.648;2023-10-31T17:35:26;11.32;;;5.75;;
19004;SDS011;9635;52.078;8.648;2023-10-31T17:40:29;9.80;;;6.53;;
19004;SDS011;9635;52.078;8.648;2023-10-31T17:45:32;11.65;;;7.07;;
19004;SDS011;9635;52.078;8.648;2023-10-31T17:50:36;9.90;;;6.55;;
19004;SDS011;9635;52.078;8.648;2023-10-31T17:55:40;14.27;;;6.60;;
19004;SDS011;9635;52.078;8.648;2023-10-31T18:00:43;11.68;;;6.05;;
19004;SDS011;9635;52.078;8.648;2023-10-31T18:05:47;11.60;;;5.85;;
19004;SDS011;9635;52.078;8.648;2023-10-31T18:10:50;10.15;;;5.43;;
19004;SDS011;9635;52.078;8.648;2023-10-31T18:15:53;9.63;;;5.57;;
19004;SDS011;9635;52.078;8.648;2023-10-31T18:20:57;14.10;;;6.20;;
19004;SDS011;9635;52.078;8.648;2023-10-31T18:26:02;11.05;;;5.75;;
19004;SDS011;9635;52.078;8.648;2023-10-31T18:31:05;10.65;;;6.57;;
19004;SDS011;9635;52.078;8.648;2023-10-31T18:36:10;11.75;;;6.45;;
19004;SDS011;9635;52.078;8.648;2023-10-31T18:41:15;9.88;;;5.55;;
19004;SDS011;9635;52.078;8.648;2023-10-31T18:46:19;11.50;;;5.03;;
19004;SDS011;9635;52.078;8.648;2023-10-31T18:51:23;7.00;;;3.97;;
19004;SDS011;9635;52.078;8.648;2023-10-31T18:56:26;6.93;;;4.43;;
19004;SDS011;9635;52.078;8.648;2023-10-31T19:01:29;10.95;;;5.00;;
19004;SDS011;9635;52.078;8.648;2023-10-31T19:06:35;10.77;;;4.63;;
19004;SDS011;9635;52.078;8.648;2023-10-31T19:11:38;7.63;;;5.13;;
19004;SDS011;9635;52.078;8.648;2023-10-31T19:16:41;11.60;;;5.97;;
19004;SDS011;9635;52.078;8.648;2023-10-31T19:21:45;14.73;;;7.43;;
19004;SDS011;9635;52.078;8.648;2023-10-31T19:26:48;9.70;;;7.13;;
19004;SDS011;9635;52.078;8.648;2023-10-31T19:31:52;13.57;;;7.88;;
19004;SDS011;9635;52.078;8.648;2023-10-31T19:36:56;18.15;;;8.88;;
19004;SDS011;9635;52.078;8.648;2023-10-31T19:42:00;16.63;;;10.32;;
19004;SDS011;9635;52.078;8.648;2023-10-31T19:47:03;17.58;;;11.27;;
19004;SDS011;9635;52.078;8.648;2023-10-31T19:52:08;24.92;;;12.75;;
19004;SDS011;9635;52.078;8.648;2023-10-31T19:57:11;24.77;;;14.27;;
19004;SDS011;9635;52.078;8.648;2023-10-31T20:02:18;24.33;;;14.27;;
19004;SDS011;9635;52.078;8.648;2023-10-31T20:07:22;21.52;;;14.35;;
19004;SDS011;9635;52.078;8.648;2023-10-31T20:12:25;29.30;;;16.98;;
19004;SDS011;9635;52.078;8.648;2023-10-31T20:17:29;26.10;;;16.65;;
19004;SDS011;9635;52.078;8.648;2023-10-31T20:22:35;26.10;;;17.10;;
19004;SDS011;9635;52.078;8.648;2023-10-31T20:27:38;33.60;;;19.02;;
19004;SDS011;9635;52.078;8.648;2023-10-31T20:32:41;30.10;;;19.95;;
19004;SDS011;9635;52.078;8.648;2023-10-31T20:37:45;31.77;;;20.23;;
19004;SDS011;9635;52.078;8.648;2023-10-31T20:42:48;29.52;;;19.77;;
19004;SDS011;9635;52.078;8.648;2023-10-31T20:47:51;31.48;;;19.48;;
19004;SDS011;9635;52.078;8.648;2023-10-31T20:52:56;31.90;;;21.52;;
19004;SDS011;9635;52.078;8.648;2023-10-31T20:58:01;37.03;;;21.02;;
19004;SDS011;9635;52.078;8.648;2023-10-31T21:03:04;35.72;;;21.98;;
19004;SDS011;9635;52.078;8.648;2023-10-31T21:08:09;34.60;;;21.48;;
19004;SDS011;9635;52.078;8.648;2023-10-31T21:13:12;30.60;;;22.15;;
19004;SDS011;9635;52.078;8.648;2023-10-31T21:18:15;37.13;;;23.77;;
19004;SDS011;9635;52.078;8.648;2023-10-31T21:23:19;33.25;;;19.98;;
19004;SDS011;9635;52.078;8.648;2023-10-31T21:28:22;36.97;;;22.17;;
19004;SDS011;9635;52.078;8.648;2023-10-31T21:33:25;31.80;;;22.00;;
19004;SDS011;9635;52.078;8.648;2023-10-31T21:38:30;28.98;;;20.48;;
19004;SDS011;9635;52.078;8.648;2023-10-31T21:43:33;29.02;;;20.80;;
19004;SDS011;9635;52.078;8.648;2023-10-31T21:48:36;31.67;;;19.52;;
19004;SDS011;9635;52.078;8.648;2023-10-31T21:53:41;29.67;;;20.70;;
19004;SDS011;9635;52.078;8.648;2023-10-31T21:58:44;34.97;;;20.25;;
19004;SDS011;9635;52.078;8.648;2023-10-31T22:03:47;34.30;;;22.50;;
19004;SDS011;9635;52.078;8.648;2023-10-31T22:08:52;34.75;;;22.33;;
19004;SDS011;9635;52.078;8.648;2023-10-31T22:13:55;35.42;;;21.70;;
19004;SDS011;9635;52.078;8.648;2023-10-31T22:18:58;36.47;;;22.73;;
19004;SDS011;9635;52.078;8.648;2023-10-31T22:24:03;36.42;;;23.85;;
19004;SDS011;9635;52.078;8.648;2023-10-31T22:29:06;40.42;;;25.33;;
19004;SDS011;9635;52.078;8.648;2023-10-31T22:34:09;44.42;;;25.55;;
19004;SDS011;9635;52.078;8.648;2023-10-31T22:39:13;45.42;;;25.88;;
19004;SDS011;9635;52.078;8.648;2023-10-31T22:44:16;48.67;;;26.77;;
19004;SDS011;9635;52.078;8.648;2023-10-31T22:49:19;41.97;;;23.73;;
19004;SDS011;9635;52.078;8.648;2023-10-31T22:54:25;41.80;;;26.20;;
19004;SDS011;9635;52.078;8.648;2023-10-31T22:59:28;44.15;;;24.45;;
19004;SDS011;9635;52.078;8.648;2023-10-31T23:04:34;41.72;;;24.48;;
19004;SDS011;9635;52.078;8.648;2023-10-31T23:09:38;40.03;;;22.63;;
19004;SDS011;9635;52.078;8.648;2023-10-31T23:14:41;31.80;;;17.33;;
19004;SDS011;9635;52.078;8.648;2023-10-31T23:19:44;27.40;;;15.45;;
19004;SDS011;9635;52.078;8.648;2023-10-31T23:24:49;25.17;;;14.13;;
19004;SDS011;9635;52.078;8.648;2023-10-31T23:29:52;26.00;;;15.23;;
19004;SDS011;9635;52.078;8.648;2023-10-31T23:34:55;18.63;;;12.68;;
19004;SDS011;9635;52.078;8.648;2023-10-31T23:39:59;18.52;;;12.52;;
19004;SDS011;9635;52.078;8.648;2023-10-31T23:45:03;14.80;;;9.88;;
19004;SDS011;9635;52.078;8.648;2023-10-31T23:50:08;15.70;;;10.45;;
19004;SDS011;9635;52.078;8.648;2023-10-31T23:55:14;15.65;;;9.60;;
